sensor_id;sensor_type;location;lat;lon;timestamp;P1;durP1;ratioP1;P2;durP2;ratioP2
19339;SDS011;9804;52.350;6.684;2024-02-23T00:00:00;0.87;;;0.10;;
19339;SDS011;9804;52.350;6.684;2024-02-23T00:02:30;1.80;;;0.20;;
19339;SDS011;9804;52.350;6.684;2024-02-23T00:04:56;0.40;;;0.10;;
19339;SDS011;9804;52.350;6.684;2024-02-23T00:07:21;1.90;;;0.20;;
19339;SDS011;9804;52.350;6.684;2024-02-23T00:09:47;0.30;;;0.10;;
19339;SDS011;9804;52.350;6.684;2024-02-23T00:12:13;0.30;;;0.10;;
19339;SDS011;9804;52.350;6.684;2024-02-23T00:14:39;1.60;;;0.10;;
19339;SDS011;9804;52.350;6.684;2024-02-23T00:17:04;0.10;;;0.10;;
19339;SDS011;9804;52.350;6.684;2024-02-23T00:19:30;1.33;;;0.10;;
19339;SDS011;9804;52.350;6.684;2024-02-23T00:21:56;0.17;;;0.00;;
19339;SDS011;9804;52.350;6.684;2024-02-23T00:24:24;2.10;;;0.17;;
19339;SDS011;9804;52.350;6.684;2024-02-23T00:26:52;0.00;;;0.00;;
19339;SDS011;9804;52.350;6.684;2024-02-23T00:29:17;0.73;;;0.10;;
19339;SDS011;9804;52.350;6.684;2024-02-23T00:31:43;0.27;;;0.10;;
19339;SDS011;9804;52.350;6.684;2024-02-23T00:34:12;3.83;;;0.50;;
19339;SDS011;9804;52.350;6.684;2024-02-23T00:36:38;0.87;;;0.27;;
19339;SDS011;9804;52.350;6.684;2024-02-23T00:39:04;1.37;;;0.10;;
19339;SDS011;9804;52.350;6.684;2024-02-23T00:41:32;0.97;;;0.20;;
19339;SDS011;9804;52.350;6.684;2024-02-23T00:43:57;0.73;;;0.20;;
19339;SDS011;9804;52.350;6.684;2024-02-23T00:46:23;0.77;;;0.27;;
19339;SDS011;9804;52.350;6.684;2024-02-23T00:48:48;0.60;;;0.37;;
19339;SDS011;9804;52.350;6.684;2024-02-23T00:51:14;0.87;;;0.30;;
19339;SDS011;9804;52.350;6.684;2024-02-23T00:53:39;0.63;;;0.40;;
19339;SDS011;9804;52.350;6.684;2024-02-23T00:56:05;1.30;;;0.40;;
19339;SDS011;9804;52.350;6.684;2024-02-23T00:58:31;2.93;;;0.50;;
19339;SDS011;9804;52.350;6.684;2024-02-23T01:00:56;1.87;;;0.50;;
19339;SDS011;9804;52.350;6.684;2024-02-23T01:03:21;2.40;;;0.60;;
19339;SDS011;9804;52.350;6.684;2024-02-23T01:05:47;1.20;;;0.53;;
19339;SDS011;9804;52.350;6.684;2024-02-23T01:08:13;2.70;;;0.67;;
19339;SDS011;9804;52.350;6.684;2024-02-23T01:10:38;1.87;;;0.60;;
19339;SDS011;9804;52.350;6.684;2024-02-23T01:13:04;1.80;;;0.87;;
19339;SDS011;9804;52.350;6.684;2024-02-23T01:15:30;2.50;;;0.70;;
19339;SDS011;9804;52.350;6.684;2024-02-23T01:17:55;2.63;;;0.77;;
19339;SDS011;9804;52.350;6.684;2024-02-23T01:20:21;1.73;;;1.03;;
19339;SDS011;9804;52.350;6.684;2024-02-23T01:22:47;2.90;;;1.40;;
19339;SDS011;9804;52.350;6.684;2024-02-23T01:25:12;3.00;;;1.00;;
19339;SDS011;9804;52.350;6.684;2024-02-23T01:27:40;3.80;;;0.93;;
19339;SDS011;9804;52.350;6.684;2024-02-23T01:30:06;5.07;;;0.93;;
19339;SDS011;9804;52.350;6.684;2024-02-23T01:32:32;6.40;;;1.40;;
19339;SDS011;9804;52.350;6.684;2024-02-23T01:34:58;4.67;;;1.10;;
19339;SDS011;9804;52.350;6.684;2024-02-23T01:37:23;7.87;;;1.63;;
19339;SDS011;9804;52.350;6.684;2024-02-23T01:39:48;5.70;;;1.20;;
19339;SDS011;9804;52.350;6.684;2024-02-23T01:42:15;3.47;;;1.53;;
19339;SDS011;9804;52.350;6.684;2024-02-23T01:44:40;5.17;;;1.90;;
19339;SDS011;9804;52.350;6.684;2024-02-23T01:47:06;7.60;;;2.33;;
19339;SDS011;9804;52.350;6.684;2024-02-23T01:49:32;5.20;;;1.97;;
19339;SDS011;9804;52.350;6.684;2024-02-23T01:51:58;5.93;;;1.80;;
19339;SDS011;9804;52.350;6.684;2024-02-23T01:54:25;3.47;;;1.50;;
19339;SDS011;9804;52.350;6.684;2024-02-23T01:56:53;4.97;;;1.83;;
19339;SDS011;9804;52.350;6.684;2024-02-23T01:59:19;5.37;;;1.70;;
19339;SDS011;9804;52.350;6.684;2024-02-23T02:01:45;6.43;;;1.30;;
19339;SDS011;9804;52.350;6.684;2024-02-23T02:04:10;9.90;;;1.30;;
19339;SDS011;9804;52.350;6.684;2024-02-23T02:06:36;4.20;;;1.07;;
19339;SDS011;9804;52.350;6.684;2024-02-23T02:09:01;4.27;;;1.27;;
19339;SDS011;9804;52.350;6.684;2024-02-23T02:11:27;4.90;;;0.70;;
19339;SDS011;9804;52.350;6.684;2024-02-23T02:13:52;2.00;;;0.90;;
19339;SDS011;9804;52.350;6.684;2024-02-23T02:16:18;4.27;;;1.10;;
19339;SDS011;9804;52.350;6.684;2024-02-23T02:18:43;5.07;;;0.80;;
19339;SDS011;9804;52.350;6.684;2024-02-23T02:21:11;4.77;;;1.10;;
19339;SDS011;9804;52.350;6.684;2024-02-23T02:23:36;3.73;;;1.00;;
19339;SDS011;9804;52.350;6.684;2024-02-23T02:26:02;4.03;;;0.80;;
19339;SDS011;9804;52.350;6.684;2024-02-23T02:28:28;2.37;;;0.60;;
19339;SDS011;9804;52.350;6.684;2024-02-23T02:30:54;2.27;;;0.33;;
19339;SDS011;9804;52.350;6.684;2024-02-23T02:33:19;2.27;;;0.40;;
19339;SDS011;9804;52.350;6.684;2024-02-23T02:35:46;1.60;;;0.30;;
19339;SDS011;9804;52.350;6.684;2024-02-23T02:38:11;2.67;;;0.20;;
19339;SDS011;9804;52.350;6.684;2024-02-23T02:40:37;1.43;;;0.20;;
19339;SDS011;9804;52.350;6.684;2024-02-23T02:43:03;3.20;;;0.40;;
19339;SDS011;9804;52.350;6.684;2024-02-23T02:45:28;0.70;;;0.30;;
19339;SDS011;9804;52.350;6.684;2024-02-23T02:47:54;2.23;;;0.70;;
19339;SDS011;9804;52.350;6.684;2024-02-23T02:50:21;5.17;;;0.80;;
19339;SDS011;9804;52.350;6.684;2024-02-23T02:52:46;3.00;;;0.87;;
19339;SDS011;9804;52.350;6.684;2024-02-23T02:55:12;3.43;;;1.03;;
19339;SDS011;9804;52.350;6.684;2024-02-23T02:57:38;4.17;;;1.60;;
19339;SDS011;9804;52.350;6.684;2024-02-23T03:00:03;4.37;;;1.70;;
19339;SDS011;9804;52.350;6.684;2024-02-23T03:02:33;5.10;;;2.20;;
19339;SDS011;9804;52.350;6.684;2024-02-23T03:04:58;4.87;;;1.87;;
19339;SDS011;9804;52.350;6.684;2024-02-23T03:07:24;2.77;;;1.63;;
19339;SDS011;9804;52.350;6.684;2024-02-23T03:09:49;6.47;;;2.67;;
19339;SDS011;9804;52.350;6.684;2024-02-23T03:12:16;7.07;;;3.07;;
19339;SDS011;9804;52.350;6.684;2024-02-23T03:14:41;5.40;;;3.00;;
19339;SDS011;9804;52.350;6.684;2024-02-23T03:17:07;8.60;;;3.00;;
19339;SDS011;9804;52.350;6.684;2024-02-23T03:19:33;8.83;;;4.57;;
19339;SDS011;9804;52.350;6.684;2024-02-23T03:21:59;6.53;;;3.53;;
19339;SDS011;9804;52.350;6.684;2024-02-23T03:24:26;9.43;;;3.57;;
19339;SDS011;9804;52.350;6.684;2024-02-23T03:26:51;13.67;;;3.97;;
19339;SDS011;9804;52.350;6.684;2024-02-23T03:29:17;9.13;;;3.63;;
19339;SDS011;9804;52.350;6.684;2024-02-23T03:31:42;8.27;;;3.60;;
19339;SDS011;9804;52.350;6.684;2024-02-23T03:34:07;9.13;;;3.13;;
19339;SDS011;9804;52.350;6.684;2024-02-23T03:36:34;8.37;;;2.37;;
19339;SDS011;9804;52.350;6.684;2024-02-23T03:39:00;9.30;;;2.47;;
19339;SDS011;9804;52.350;6.684;2024-02-23T03:41:26;9.30;;;1.80;;
19339;SDS011;9804;52.350;6.684;2024-02-23T03:43:51;8.80;;;1.80;;
19339;SDS011;9804;52.350;6.684;2024-02-23T03:46:16;4.37;;;1.80;;
19339;SDS011;9804;52.350;6.684;2024-02-23T03:48:42;4.80;;;1.50;;
19339;SDS011;9804;52.350;6.684;2024-02-23T03:51:09;8.80;;;1.60;;
19339;SDS011;9804;52.350;6.684;2024-02-23T03:53:35;3.93;;;1.10;;
19339;SDS011;9804;52.350;6.684;2024-02-23T03:56:01;5.60;;;1.50;;
19339;SDS011;9804;52.350;6.684;2024-02-23T03:58:26;6.43;;;1.70;;
19339;SDS011;9804;52.350;6.684;2024-02-23T04:00:52;7.27;;;1.70;;
19339;SDS011;9804;52.350;6.684;2024-02-23T04:03:17;10.67;;;2.23;;
19339;SDS011;9804;52.350;6.684;2024-02-23T04:05:42;6.80;;;1.80;;
19339;SDS011;9804;52.350;6.684;2024-02-23T04:08:08;4.43;;;1.83;;
19339;SDS011;9804;52.350;6.684;2024-02-23T04:10:33;7.80;;;2.13;;
19339;SDS011;9804;52.350;6.684;2024-02-23T04:12:59;8.40;;;1.97;;
19339;SDS011;9804;52.350;6.684;2024-02-23T04:15:25;10.00;;;1.77;;
19339;SDS011;9804;52.350;6.684;2024-02-23T04:17:51;6.87;;;2.07;;
19339;SDS011;9804;52.350;6.684;2024-02-23T04:20:17;5.90;;;1.30;;
19339;SDS011;9804;52.350;6.684;2024-02-23T04:22:42;7.37;;;2.07;;
19339;SDS011;9804;52.350;6.684;2024-02-23T04:25:09;7.07;;;1.40;;
19339;SDS011;9804;52.350;6.684;2024-02-23T04:27:34;10.83;;;1.53;;
19339;SDS011;9804;52.350;6.684;2024-02-23T04:30:00;5.83;;;1.60;;
19339;SDS011;9804;52.350;6.684;2024-02-23T04:32:25;6.63;;;1.63;;
19339;SDS011;9804;52.350;6.684;2024-02-23T04:34:51;6.93;;;1.47;;
19339;SDS011;9804;52.350;6.684;2024-02-23T04:37:16;5.07;;;1.40;;
19339;SDS011;9804;52.350;6.684;2024-02-23T04:39:43;9.80;;;1.47;;
19339;SDS011;9804;52.350;6.684;2024-02-23T04:42:09;7.33;;;1.17;;
19339;SDS011;9804;52.350;6.684;2024-02-23T04:44:35;5.60;;;2.33;;
19339;SDS011;9804;52.350;6.684;2024-02-23T04:47:01;6.20;;;1.47;;
19339;SDS011;9804;52.350;6.684;2024-02-23T04:49:27;12.10;;;1.63;;
19339;SDS011;9804;52.350;6.684;2024-02-23T04:51:52;7.23;;;1.60;;
19339;SDS011;9804;52.350;6.684;2024-02-23T04:54:18;7.33;;;1.23;;
19339;SDS011;9804;52.350;6.684;2024-02-23T04:56:44;6.80;;;1.10;;
19339;SDS011;9804;52.350;6.684;2024-02-23T04:59:09;11.87;;;1.83;;
19339;SDS011;9804;52.350;6.684;2024-02-23T05:01:38;8.60;;;1.10;;
19339;SDS011;9804;52.350;6.684;2024-02-23T05:04:03;4.43;;;1.47;;
19339;SDS011;9804;52.350;6.684;2024-02-23T05:06:29;6.80;;;1.50;;
19339;SDS011;9804;52.350;6.684;2024-02-23T05:08:55;8.83;;;1.67;;
19339;SDS011;9804;52.350;6.684;2024-02-23T05:11:20;11.07;;;2.30;;
19339;SDS011;9804;52.350;6.684;2024-02-23T05:13:46;8.30;;;1.87;;
19339;SDS011;9804;52.350;6.684;2024-02-23T05:16:13;3.67;;;1.20;;
19339;SDS011;9804;52.350;6.684;2024-02-23T05:18:39;6.60;;;1.90;;
19339;SDS011;9804;52.350;6.684;2024-02-23T05:21:05;11.13;;;1.53;;
19339;SDS011;9804;52.350;6.684;2024-02-23T05:23:31;6.87;;;2.30;;
19339;SDS011;9804;52.350;6.684;2024-02-23T05:25:56;6.13;;;1.80;;
19339;SDS011;9804;52.350;6.684;2024-02-23T05:28:21;6.93;;;2.30;;
19339;SDS011;9804;52.350;6.684;2024-02-23T05:30:47;7.63;;;1.60;;
19339;SDS011;9804;52.350;6.684;2024-02-23T05:33:12;10.53;;;1.40;;
19339;SDS011;9804;52.350;6.684;2024-02-23T05:35:38;9.10;;;1.87;;
19339;SDS011;9804;52.350;6.684;2024-02-23T05:38:03;5.40;;;1.17;;
19339;SDS011;9804;52.350;6.684;2024-02-23T05:40:31;7.90;;;1.40;;
19339;SDS011;9804;52.350;6.684;2024-02-23T05:43:01;9.13;;;1.67;;
19339;SDS011;9804;52.350;6.684;2024-02-23T05:45:26;5.67;;;1.53;;
19339;SDS011;9804;52.350;6.684;2024-02-23T05:47:52;10.57;;;1.80;;
19339;SDS011;9804;52.350;6.684;2024-02-23T05:50:17;8.07;;;1.57;;
19339;SDS011;9804;52.350;6.684;2024-02-23T05:52:43;7.30;;;1.77;;
19339;SDS011;9804;52.350;6.684;2024-02-23T05:55:08;5.70;;;1.40;;
19339;SDS011;9804;52.350;6.684;2024-02-23T05:57:34;4.63;;;1.33;;
19339;SDS011;9804;52.350;6.684;2024-02-23T05:59:59;9.23;;;1.43;;
19339;SDS011;9804;52.350;6.684;2024-02-23T06:02:25;6.93;;;1.37;;
19339;SDS011;9804;52.350;6.684;2024-02-23T06:04:50;8.97;;;1.30;;
19339;SDS011;9804;52.350;6.684;2024-02-23T06:07:16;6.33;;;1.27;;
19339;SDS011;9804;52.350;6.684;2024-02-23T06:09:42;6.33;;;1.50;;
19339;SDS011;9804;52.350;6.684;2024-02-23T06:12:08;4.63;;;1.20;;
19339;SDS011;9804;52.350;6.684;2024-02-23T06:14:34;6.93;;;1.17;;
19339;SDS011;9804;52.350;6.684;2024-02-23T06:17:00;8.30;;;1.67;;
19339;SDS011;9804;52.350;6.684;2024-02-23T06:19:26;12.43;;;2.33;;
19339;SDS011;9804;52.350;6.684;2024-02-23T06:21:52;6.43;;;1.27;;
19339;SDS011;9804;52.350;6.684;2024-02-23T06:24:17;5.77;;;1.63;;
19339;SDS011;9804;52.350;6.684;2024-02-23T06:26:44;7.80;;;1.70;;
19339;SDS011;9804;52.350;6.684;2024-02-23T06:29:11;9.23;;;1.70;;
19339;SDS011;9804;52.350;6.684;2024-02-23T06:31:38;5.80;;;1.40;;
19339;SDS011;9804;52.350;6.684;2024-02-23T06:34:04;9.20;;;1.73;;
19339;SDS011;9804;52.350;6.684;2024-02-23T06:36:30;4.43;;;2.27;;
19339;SDS011;9804;52.350;6.684;2024-02-23T06:38:55;9.30;;;2.17;;
19339;SDS011;9804;52.350;6.684;2024-02-23T06:41:21;9.90;;;1.70;;
19339;SDS011;9804;52.350;6.684;2024-02-23T06:43:47;6.20;;;2.20;;
19339;SDS011;9804;52.350;6.684;2024-02-23T06:46:12;6.33;;;1.30;;
19339;SDS011;9804;52.350;6.684;2024-02-23T06:48:38;7.97;;;1.43;;
19339;SDS011;9804;52.350;6.684;2024-02-23T06:51:04;5.90;;;1.50;;
19339;SDS011;9804;52.350;6.684;2024-02-23T06:53:30;8.73;;;1.50;;
19339;SDS011;9804;52.350;6.684;2024-02-23T06:55:57;10.23;;;1.63;;
19339;SDS011;9804;52.350;6.684;2024-02-23T06:58:24;5.80;;;1.27;;
19339;SDS011;9804;52.350;6.684;2024-02-23T07:00:49;7.43;;;1.20;;
19339;SDS011;9804;52.350;6.684;2024-02-23T07:03:14;7.10;;;1.70;;
19339;SDS011;9804;52.350;6.684;2024-02-23T07:05:43;5.40;;;1.00;;
19339;SDS011;9804;52.350;6.684;2024-02-23T07:08:08;6.00;;;1.20;;
19339;SDS011;9804;52.350;6.684;2024-02-23T07:10:34;12.00;;;1.90;;
19339;SDS011;9804;52.350;6.684;2024-02-23T07:13:00;6.90;;;1.17;;
19339;SDS011;9804;52.350;6.684;2024-02-23T07:15:26;3.53;;;1.07;;
19339;SDS011;9804;52.350;6.684;2024-02-23T07:17:51;9.97;;;1.77;;
19339;SDS011;9804;52.350;6.684;2024-02-23T07:20:17;9.03;;;1.10;;
19339;SDS011;9804;52.350;6.684;2024-02-23T07:22:44;7.40;;;1.53;;
19339;SDS011;9804;52.350;6.684;2024-02-23T07:25:10;5.20;;;1.20;;
19339;SDS011;9804;52.350;6.684;2024-02-23T07:27:36;8.83;;;1.47;;
19339;SDS011;9804;52.350;6.684;2024-02-23T07:30:02;5.17;;;1.03;;
19339;SDS011;9804;52.350;6.684;2024-02-23T07:32:29;4.63;;;1.03;;
19339;SDS011;9804;52.350;6.684;2024-02-23T07:34:55;6.40;;;0.97;;
19339;SDS011;9804;52.350;6.684;2024-02-23T07:37:20;10.33;;;1.40;;
19339;SDS011;9804;52.350;6.684;2024-02-23T07:39:46;8.13;;;1.00;;
19339;SDS011;9804;52.350;6.684;2024-02-23T07:42:11;5.23;;;0.80;;
19339;SDS011;9804;52.350;6.684;2024-02-23T07:44:40;6.70;;;1.20;;
19339;SDS011;9804;52.350;6.684;2024-02-23T07:47:06;6.77;;;1.40;;
19339;SDS011;9804;52.350;6.684;2024-02-23T07:49:31;7.07;;;1.10;;
19339;SDS011;9804;52.350;6.684;2024-02-23T07:51:57;6.77;;;1.10;;
19339;SDS011;9804;52.350;6.684;2024-02-23T07:54:22;9.63;;;1.20;;
19339;SDS011;9804;52.350;6.684;2024-02-23T07:56:48;9.80;;;1.07;;
19339;SDS011;9804;52.350;6.684;2024-02-23T07:59:13;6.60;;;1.50;;
19339;SDS011;9804;52.350;6.684;2024-02-23T08:01:39;7.77;;;1.20;;
19339;SDS011;9804;52.350;6.684;2024-02-23T08:04:05;4.73;;;1.00;;
19339;SDS011;9804;52.350;6.684;2024-02-23T08:06:31;4.67;;;0.93;;
19339;SDS011;9804;52.350;6.684;2024-02-23T08:08:56;5.57;;;1.07;;
19339;SDS011;9804;52.350;6.684;2024-02-23T08:11:22;5.03;;;1.00;;
19339;SDS011;9804;52.350;6.684;2024-02-23T08:13:47;4.90;;;1.00;;
19339;SDS011;9804;52.350;6.684;2024-02-23T08:16:13;8.30;;;1.27;;
19339;SDS011;9804;52.350;6.684;2024-02-23T08:18:41;6.10;;;0.87;;
19339;SDS011;9804;52.350;6.684;2024-02-23T08:21:06;7.38;;;1.08;;
19339;SDS011;9804;52.350;6.684;2024-02-23T08:23:32;3.47;;;0.83;;
19339;SDS011;9804;52.350;6.684;2024-02-23T08:25:58;5.27;;;1.00;;
19339;SDS011;9804;52.350;6.684;2024-02-23T08:28:25;8.60;;;1.20;;
19339;SDS011;9804;52.350;6.684;2024-02-23T08:30:50;6.50;;;0.85;;
19339;SDS011;9804;52.350;6.684;2024-02-23T08:33:16;9.77;;;2.00;;
19339;SDS011;9804;52.350;6.684;2024-02-23T08:35:41;7.47;;;1.20;;
19339;SDS011;9804;52.350;6.684;2024-02-23T08:38:07;5.90;;;1.03;;
19339;SDS011;9804;52.350;6.684;2024-02-23T08:40:34;8.20;;;1.05;;
19339;SDS011;9804;52.350;6.684;2024-02-23T08:43:00;9.20;;;1.20;;
19339;SDS011;9804;52.350;6.684;2024-02-23T08:45:25;6.78;;;1.67;;
19339;SDS011;9804;52.350;6.684;2024-02-23T08:47:51;5.93;;;1.27;;
19339;SDS011;9804;52.350;6.684;2024-02-23T08:50:16;5.77;;;1.13;;
19339;SDS011;9804;52.350;6.684;2024-02-23T08:52:42;7.00;;;1.10;;
19339;SDS011;9804;52.350;6.684;2024-02-23T08:55:09;5.23;;;1.10;;
19339;SDS011;9804;52.350;6.684;2024-02-23T08:57:34;4.30;;;0.87;;
19339;SDS011;9804;52.350;6.684;2024-02-23T09:00:01;5.10;;;1.20;;
19339;SDS011;9804;52.350;6.684;2024-02-23T09:02:26;6.30;;;0.90;;
19339;SDS011;9804;52.350;6.684;2024-02-23T09:04:52;7.90;;;1.13;;
19339;SDS011;9804;52.350;6.684;2024-02-23T09:07:17;3.85;;;0.60;;
19339;SDS011;9804;52.350;6.684;2024-02-23T09:09:46;4.75;;;0.88;;
19339;SDS011;9804;52.350;6.684;2024-02-23T09:12:13;5.03;;;0.80;;
19339;SDS011;9804;52.350;6.684;2024-02-23T09:14:41;5.20;;;1.00;;
19339;SDS011;9804;52.350;6.684;2024-02-23T09:17:08;6.45;;;1.30;;
19339;SDS011;9804;52.350;6.684;2024-02-23T09:19:35;6.07;;;0.80;;
19339;SDS011;9804;52.350;6.684;2024-02-23T09:22:01;5.25;;;1.00;;
19339;SDS011;9804;52.350;6.684;2024-02-23T09:24:27;6.97;;;1.35;;
19339;SDS011;9804;52.350;6.684;2024-02-23T09:26:53;3.83;;;1.00;;
19339;SDS011;9804;52.350;6.684;2024-02-23T09:29:18;5.72;;;0.70;;
19339;SDS011;9804;52.350;6.684;2024-02-23T09:31:44;3.40;;;0.70;;
19339;SDS011;9804;52.350;6.684;2024-02-23T09:34:10;8.13;;;1.10;;
19339;SDS011;9804;52.350;6.684;2024-02-23T09:36:36;5.25;;;0.93;;
19339;SDS011;9804;52.350;6.684;2024-02-23T09:39:01;3.50;;;0.82;;
19339;SDS011;9804;52.350;6.684;2024-02-23T09:41:30;6.50;;;0.90;;
19339;SDS011;9804;52.350;6.684;2024-02-23T09:43:57;8.15;;;1.23;;
19339;SDS011;9804;52.350;6.684;2024-02-23T09:46:24;4.32;;;0.80;;
19339;SDS011;9804;52.350;6.684;2024-02-23T09:48:51;6.35;;;0.98;;
19339;SDS011;9804;52.350;6.684;2024-02-23T09:51:17;6.72;;;0.95;;
19339;SDS011;9804;52.350;6.684;2024-02-23T09:53:43;5.25;;;0.73;;
19339;SDS011;9804;52.350;6.684;2024-02-23T09:56:09;4.45;;;1.30;;
19339;SDS011;9804;52.350;6.684;2024-02-23T09:58:39;7.40;;;0.90;;
19339;SDS011;9804;52.350;6.684;2024-02-23T10:01:06;4.65;;;0.82;;
19339;SDS011;9804;52.350;6.684;2024-02-23T10:03:32;4.10;;;1.00;;
19339;SDS011;9804;52.350;6.684;2024-02-23T10:05:58;4.85;;;0.70;;
19339;SDS011;9804;52.350;6.684;2024-02-23T10:08:24;6.03;;;0.77;;
19339;SDS011;9804;52.350;6.684;2024-02-23T10:10:56;4.68;;;1.17;;
19339;SDS011;9804;52.350;6.684;2024-02-23T10:13:22;4.90;;;0.70;;
19339;SDS011;9804;52.350;6.684;2024-02-23T10:15:52;8.73;;;1.15;;
19339;SDS011;9804;52.350;6.684;2024-02-23T10:18:18;9.57;;;1.17;;
19339;SDS011;9804;52.350;6.684;2024-02-23T10:20:44;5.80;;;0.60;;
19339;SDS011;9804;52.350;6.684;2024-02-23T10:23:10;6.40;;;0.93;;
19339;SDS011;9804;52.350;6.684;2024-02-23T10:25:36;7.38;;;1.08;;
19339;SDS011;9804;52.350;6.684;2024-02-23T10:28:05;2.90;;;0.57;;
19339;SDS011;9804;52.350;6.684;2024-02-23T10:30:31;5.80;;;0.80;;
19339;SDS011;9804;52.350;6.684;2024-02-23T10:32:57;5.03;;;0.90;;
19339;SDS011;9804;52.350;6.684;2024-02-23T10:35:23;4.97;;;0.93;;
19339;SDS011;9804;52.350;6.684;2024-02-23T10:37:49;7.03;;;0.85;;
19339;SDS011;9804;52.350;6.684;2024-02-23T10:40:16;7.28;;;1.20;;
19339;SDS011;9804;52.350;6.684;2024-02-23T10:42:46;5.82;;;0.88;;
19339;SDS011;9804;52.350;6.684;2024-02-23T10:45:20;9.00;;;0.90;;
19339;SDS011;9804;52.350;6.684;2024-02-23T10:47:50;8.32;;;0.98;;
19339;SDS011;9804;52.350;6.684;2024-02-23T10:50:17;5.00;;;0.68;;
19339;SDS011;9804;52.350;6.684;2024-02-23T10:52:44;2.65;;;0.50;;
19339;SDS011;9804;52.350;6.684;2024-02-23T10:55:14;8.93;;;1.02;;
19339;SDS011;9804;52.350;6.684;2024-02-23T10:57:39;6.97;;;1.27;;
19339;SDS011;9804;52.350;6.684;2024-02-23T11:00:05;5.50;;;0.77;;
19339;SDS011;9804;52.350;6.684;2024-02-23T11:02:56;3.30;;;0.82;;
19339;SDS011;9804;52.350;6.684;2024-02-23T11:05:21;3.30;;;0.60;;
19339;SDS011;9804;52.350;6.684;2024-02-23T11:07:48;3.38;;;0.77;;
19339;SDS011;9804;52.350;6.684;2024-02-23T11:10:14;6.47;;;0.60;;
19339;SDS011;9804;52.350;6.684;2024-02-23T11:12:43;9.80;;;0.75;;
19339;SDS011;9804;52.350;6.684;2024-02-23T11:15:09;3.72;;;0.73;;
19339;SDS011;9804;52.350;6.684;2024-02-23T11:17:36;3.78;;;0.60;;
19339;SDS011;9804;52.350;6.684;2024-02-23T11:20:03;8.63;;;0.82;;
19339;SDS011;9804;52.350;6.684;2024-02-23T11:22:30;3.35;;;0.57;;
19339;SDS011;9804;52.350;6.684;2024-02-23T11:25:00;7.07;;;0.90;;
19339;SDS011;9804;52.350;6.684;2024-02-23T11:27:32;6.70;;;1.20;;
19339;SDS011;9804;52.350;6.684;2024-02-23T11:30:05;4.65;;;0.82;;
19339;SDS011;9804;52.350;6.684;2024-02-23T11:32:42;5.25;;;0.80;;
19339;SDS011;9804;52.350;6.684;2024-02-23T11:35:13;6.45;;;0.95;;
19339;SDS011;9804;52.350;6.684;2024-02-23T11:37:48;5.75;;;0.93;;
19339;SDS011;9804;52.350;6.684;2024-02-23T11:40:21;4.55;;;1.27;;
19339;SDS011;9804;52.350;6.684;2024-02-23T11:42:47;4.75;;;0.95;;
19339;SDS011;9804;52.350;6.684;2024-02-23T11:45:13;7.32;;;0.90;;
19339;SDS011;9804;52.350;6.684;2024-02-23T11:47:38;5.40;;;0.77;;
19339;SDS011;9804;52.350;6.684;2024-02-23T11:50:06;5.95;;;1.50;;
19339;SDS011;9804;52.350;6.684;2024-02-23T11:52:33;3.67;;;1.00;;
19339;SDS011;9804;52.350;6.684;2024-02-23T11:55:02;5.68;;;0.73;;
19339;SDS011;9804;52.350;6.684;2024-02-23T11:57:30;6.60;;;0.85;;
19339;SDS011;9804;52.350;6.684;2024-02-23T12:00:00;7.07;;;1.05;;
19339;SDS011;9804;52.350;6.684;2024-02-23T12:02:27;7.68;;;1.75;;
19339;SDS011;9804;52.350;6.684;2024-02-23T12:04:52;2.03;;;0.80;;
19339;SDS011;9804;52.350;6.684;2024-02-23T12:07:18;4.57;;;0.90;;
19339;SDS011;9804;52.350;6.684;2024-02-23T12:09:44;4.13;;;0.98;;
19339;SDS011;9804;52.350;6.684;2024-02-23T12:12:10;2.38;;;0.70;;
19339;SDS011;9804;52.350;6.684;2024-02-23T12:14:36;4.57;;;0.98;;
19339;SDS011;9804;52.350;6.684;2024-02-23T12:17:02;5.45;;;0.95;;
19339;SDS011;9804;52.350;6.684;2024-02-23T12:19:29;2.70;;;0.73;;
19339;SDS011;9804;52.350;6.684;2024-02-23T12:21:59;4.38;;;0.82;;
19339;SDS011;9804;52.350;6.684;2024-02-23T12:24:26;4.65;;;1.00;;
19339;SDS011;9804;52.350;6.684;2024-02-23T12:26:56;6.63;;;1.35;;
19339;SDS011;9804;52.350;6.684;2024-02-23T12:29:22;5.93;;;1.30;;
19339;SDS011;9804;52.350;6.684;2024-02-23T12:31:48;5.28;;;0.98;;
19339;SDS011;9804;52.350;6.684;2024-02-23T12:34:13;5.32;;;1.35;;
19339;SDS011;9804;52.350;6.684;2024-02-23T12:36:39;3.92;;;0.95;;
19339;SDS011;9804;52.350;6.684;2024-02-23T12:39:05;9.40;;;1.00;;
19339;SDS011;9804;52.350;6.684;2024-02-23T12:41:31;6.32;;;1.35;;
19339;SDS011;9804;52.350;6.684;2024-02-23T12:43:57;6.80;;;1.27;;
19339;SDS011;9804;52.350;6.684;2024-02-23T12:46:23;5.63;;;1.10;;
19339;SDS011;9804;52.350;6.684;2024-02-23T12:48:49;4.95;;;0.73;;
19339;SDS011;9804;52.350;6.684;2024-02-23T12:51:14;7.63;;;1.05;;
19339;SDS011;9804;52.350;6.684;2024-02-23T12:53:40;4.65;;;0.90;;
19339;SDS011;9804;52.350;6.684;2024-02-23T12:56:08;6.18;;;1.05;;
19339;SDS011;9804;52.350;6.684;2024-02-23T12:58:36;4.28;;;0.63;;
19339;SDS011;9804;52.350;6.684;2024-02-23T13:01:05;1.90;;;0.50;;
19339;SDS011;9804;52.350;6.684;2024-02-23T13:03:32;4.68;;;1.00;;
19339;SDS011;9804;52.350;6.684;2024-02-23T13:05:58;4.82;;;0.80;;
19339;SDS011;9804;52.350;6.684;2024-02-23T13:08:24;3.35;;;0.85;;
19339;SDS011;9804;52.350;6.684;2024-02-23T13:10:51;5.95;;;1.20;;
19339;SDS011;9804;52.350;6.684;2024-02-23T13:13:18;2.50;;;0.77;;
19339;SDS011;9804;52.350;6.684;2024-02-23T13:15:44;4.63;;;0.80;;
19339;SDS011;9804;52.350;6.684;2024-02-23T13:18:10;3.70;;;0.77;;
19339;SDS011;9804;52.350;6.684;2024-02-23T13:20:36;5.43;;;0.90;;
19339;SDS011;9804;52.350;6.684;2024-02-23T13:23:03;3.95;;;0.90;;
19339;SDS011;9804;52.350;6.684;2024-02-23T13:25:29;2.75;;;0.73;;
19339;SDS011;9804;52.350;6.684;2024-02-23T13:27:54;5.05;;;1.15;;
19339;SDS011;9804;52.350;6.684;2024-02-23T13:30:20;3.53;;;0.77;;
19339;SDS011;9804;52.350;6.684;2024-02-23T13:32:45;4.57;;;0.77;;
19339;SDS011;9804;52.350;6.684;2024-02-23T13:35:11;6.45;;;1.10;;
19339;SDS011;9804;52.350;6.684;2024-02-23T13:37:36;3.15;;;1.13;;
19339;SDS011;9804;52.350;6.684;2024-02-23T13:40:02;5.88;;;1.20;;
19339;SDS011;9804;52.350;6.684;2024-02-23T13:42:30;4.65;;;0.77;;
19339;SDS011;9804;52.350;6.684;2024-02-23T13:44:56;5.70;;;1.00;;
19339;SDS011;9804;52.350;6.684;2024-02-23T13:47:21;6.55;;;0.90;;
19339;SDS011;9804;52.350;6.684;2024-02-23T13:49:47;3.63;;;0.70;;
19339;SDS011;9804;52.350;6.684;2024-02-23T13:52:12;5.18;;;0.80;;
19339;SDS011;9804;52.350;6.684;2024-02-23T13:54:38;5.88;;;1.67;;
19339;SDS011;9804;52.350;6.684;2024-02-23T13:57:03;4.07;;;1.02;;
19339;SDS011;9804;52.350;6.684;2024-02-23T13:59:29;3.47;;;1.15;;
19339;SDS011;9804;52.350;6.684;2024-02-23T14:01:54;6.28;;;1.33;;
19339;SDS011;9804;52.350;6.684;2024-02-23T14:04:20;3.53;;;0.77;;
19339;SDS011;9804;52.350;6.684;2024-02-23T14:06:45;6.70;;;1.25;;
19339;SDS011;9804;52.350;6.684;2024-02-23T14:09:11;4.28;;;0.80;;
19339;SDS011;9804;52.350;6.684;2024-02-23T14:11:36;4.47;;;0.88;;
19339;SDS011;9804;52.350;6.684;2024-02-23T14:14:02;5.07;;;1.42;;
19339;SDS011;9804;52.350;6.684;2024-02-23T14:16:28;7.45;;;1.20;;
19339;SDS011;9804;52.350;6.684;2024-02-23T14:18:54;3.67;;;0.80;;
19339;SDS011;9804;52.350;6.684;2024-02-23T14:21:20;5.35;;;1.00;;
19339;SDS011;9804;52.350;6.684;2024-02-23T14:23:47;4.97;;;1.05;;
19339;SDS011;9804;52.350;6.684;2024-02-23T14:26:13;4.85;;;1.00;;
19339;SDS011;9804;52.350;6.684;2024-02-23T14:28:38;4.07;;;0.70;;
19339;SDS011;9804;52.350;6.684;2024-02-23T14:31:04;2.67;;;1.42;;
19339;SDS011;9804;52.350;6.684;2024-02-23T14:33:31;4.47;;;0.95;;
19339;SDS011;9804;52.350;6.684;2024-02-23T14:35:57;3.90;;;1.02;;
19339;SDS011;9804;52.350;6.684;2024-02-23T14:38:22;5.95;;;1.00;;
19339;SDS011;9804;52.350;6.684;2024-02-23T14:40:48;1.95;;;1.02;;
19339;SDS011;9804;52.350;6.684;2024-02-23T14:43:14;4.35;;;1.02;;
19339;SDS011;9804;52.350;6.684;2024-02-23T14:45:40;3.58;;;0.70;;
19339;SDS011;9804;52.350;6.684;2024-02-23T14:48:06;4.50;;;1.00;;
19339;SDS011;9804;52.350;6.684;2024-02-23T14:50:33;3.28;;;0.70;;
19339;SDS011;9804;52.350;6.684;2024-02-23T14:52:58;3.92;;;0.98;;